sensor_id;sensor_type;location;lat;lon;timestamp;P1;durP1;ratioP1;P2;durP2;ratioP2
54328;SDS011;40710;51.120;13.136;2024-02-21T00:00:55;5.75;;;5.48;;
54328;SDS011;40710;51.120;13.136;2024-02-21T00:03:20;5.98;;;5.75;;
54328;SDS011;40710;51.120;13.136;2024-02-21T00:05:44;6.35;;;6.01;;
54328;SDS011;40710;51.120;13.136;2024-02-21T00:08:09;6.25;;;5.87;;
54328;SDS011;40710;51.120;13.136;2024-02-21T00:10:33;5.87;;;5.61;;
54328;SDS011;40710;51.120;13.136;2024-02-21T00:12:59;6.05;;;5.77;;
54328;SDS011;40710;51.120;13.136;2024-02-21T00:15:23;6.04;;;5.74;;
54328;SDS011;40710;51.120;13.136;2024-02-21T00:17:48;5.91;;;5.63;;
54328;SDS011;40710;51.120;13.136;2024-02-21T00:20:13;5.39;;;5.15;;
54328;SDS011;40710;51.120;13.136;2024-02-21T00:22:37;5.77;;;5.42;;
54328;SDS011;40710;51.120;13.136;2024-02-21T00:25:02;5.96;;;5.52;;
54328;SDS011;40710;51.120;13.136;2024-02-21T00:27:26;5.93;;;5.60;;
54328;SDS011;40710;51.120;13.136;2024-02-21T00:29:51;5.74;;;5.47;;
54328;SDS011;40710;51.120;13.136;2024-02-21T00:32:15;5.80;;;5.49;;
54328;SDS011;40710;51.120;13.136;2024-02-21T00:34:40;5.91;;;5.59;;
54328;SDS011;40710;51.120;13.136;2024-02-21T00:37:04;5.68;;;5.36;;
54328;SDS011;40710;51.120;13.136;2024-02-21T00:39:30;5.92;;;5.48;;
54328;SDS011;40710;51.120;13.136;2024-02-21T00:41:54;5.85;;;5.44;;
54328;SDS011;40710;51.120;13.136;2024-02-21T00:44:19;6.03;;;5.64;;
54328;SDS011;40710;51.120;13.136;2024-02-21T00:46:43;5.94;;;5.57;;
54328;SDS011;40710;51.120;13.136;2024-02-21T00:49:08;5.82;;;5.43;;
54328;SDS011;40710;51.120;13.136;2024-02-21T00:51:32;5.46;;;5.25;;
54328;SDS011;40710;51.120;13.136;2024-02-21T00:53:57;5.53;;;5.34;;
54328;SDS011;40710;51.120;13.136;2024-02-21T00:56:21;5.63;;;5.40;;
54328;SDS011;40710;51.120;13.136;2024-02-21T00:58:46;5.70;;;5.43;;
54328;SDS011;40710;51.120;13.136;2024-02-21T01:01:10;5.44;;;5.19;;
54328;SDS011;40710;51.120;13.136;2024-02-21T01:03:35;5.61;;;5.36;;
54328;SDS011;40710;51.120;13.136;2024-02-21T01:05:59;5.86;;;5.62;;
54328;SDS011;40710;51.120;13.136;2024-02-21T01:08:24;5.59;;;5.37;;
54328;SDS011;40710;51.120;13.136;2024-02-21T01:10:48;5.80;;;5.51;;
54328;SDS011;40710;51.120;13.136;2024-02-21T01:13:13;5.43;;;5.17;;
54328;SDS011;40710;51.120;13.136;2024-02-21T01:15:38;5.71;;;5.38;;
54328;SDS011;40710;51.120;13.136;2024-02-21T01:18:03;5.57;;;5.23;;
54328;SDS011;40710;51.120;13.136;2024-02-21T01:20:29;5.63;;;5.35;;
54328;SDS011;40710;51.120;13.136;2024-02-21T01:22:53;5.72;;;5.46;;
54328;SDS011;40710;51.120;13.136;2024-02-21T01:25:18;5.73;;;5.41;;
54328;SDS011;40710;51.120;13.136;2024-02-21T01:27:42;5.65;;;5.39;;
54328;SDS011;40710;51.120;13.136;2024-02-21T01:30:07;5.80;;;5.50;;
54328;SDS011;40710;51.120;13.136;2024-02-21T01:32:32;6.01;;;5.64;;
54328;SDS011;40710;51.120;13.136;2024-02-21T01:34:56;5.88;;;5.60;;
54328;SDS011;40710;51.120;13.136;2024-02-21T01:37:21;6.28;;;5.96;;
54328;SDS011;40710;51.120;13.136;2024-02-21T01:39:45;5.59;;;5.33;;
54328;SDS011;40710;51.120;13.136;2024-02-21T01:42:10;5.37;;;5.22;;
54328;SDS011;40710;51.120;13.136;2024-02-21T01:44:35;5.56;;;5.40;;
54328;SDS011;40710;51.120;13.136;2024-02-21T01:47:00;5.95;;;5.79;;
54328;SDS011;40710;51.120;13.136;2024-02-21T01:49:25;5.67;;;5.48;;
54328;SDS011;40710;51.120;13.136;2024-02-21T01:51:50;5.92;;;5.72;;
54328;SDS011;40710;51.120;13.136;2024-02-21T01:54:15;5.57;;;5.38;;
54328;SDS011;40710;51.120;13.136;2024-02-21T01:56:41;5.54;;;5.33;;
54328;SDS011;40710;51.120;13.136;2024-02-21T01:59:06;5.80;;;5.57;;
54328;SDS011;40710;51.120;13.136;2024-02-21T02:01:32;5.84;;;5.56;;
54328;SDS011;40710;51.120;13.136;2024-02-21T02:03:56;5.83;;;5.52;;
54328;SDS011;40710;51.120;13.136;2024-02-21T02:06:24;5.56;;;5.34;;
54328;SDS011;40710;51.120;13.136;2024-02-21T02:08:48;5.88;;;5.61;;
54328;SDS011;40710;51.120;13.136;2024-02-21T02:11:13;6.02;;;5.75;;
54328;SDS011;40710;51.120;13.136;2024-02-21T02:13:39;5.96;;;5.69;;
54328;SDS011;40710;51.120;13.136;2024-02-21T02:16:03;5.81;;;5.58;;
54328;SDS011;40710;51.120;13.136;2024-02-21T02:18:29;5.72;;;5.51;;
54328;SDS011;40710;51.120;13.136;2024-02-21T02:20:53;5.86;;;5.60;;
54328;SDS011;40710;51.120;13.136;2024-02-21T02:23:30;5.94;;;5.71;;
54328;SDS011;40710;51.120;13.136;2024-02-21T02:25:55;6.00;;;5.72;;
54328;SDS011;40710;51.120;13.136;2024-02-21T02:28:20;6.29;;;5.96;;
54328;SDS011;40710;51.120;13.136;2024-02-21T02:30:47;5.68;;;5.45;;
54328;SDS011;40710;51.120;13.136;2024-02-21T02:33:12;5.68;;;5.48;;
54328;SDS011;40710;51.120;13.136;2024-02-21T02:35:37;6.16;;;5.89;;
54328;SDS011;40710;51.120;13.136;2024-02-21T02:38:02;5.96;;;5.66;;
54328;SDS011;40710;51.120;13.136;2024-02-21T02:40:27;5.89;;;5.64;;
54328;SDS011;40710;51.120;13.136;2024-02-21T02:42:52;5.89;;;5.64;;
54328;SDS011;40710;51.120;13.136;2024-02-21T02:45:19;5.85;;;5.65;;
54328;SDS011;40710;51.120;13.136;2024-02-21T02:47:46;6.11;;;5.93;;
54328;SDS011;40710;51.120;13.136;2024-02-21T02:50:11;5.51;;;5.37;;
54328;SDS011;40710;51.120;13.136;2024-02-21T02:52:36;6.26;;;6.09;;
54328;SDS011;40710;51.120;13.136;2024-02-21T02:55:01;6.03;;;5.84;;
54328;SDS011;40710;51.120;13.136;2024-02-21T02:57:26;6.32;;;6.12;;
54328;SDS011;40710;51.120;13.136;2024-02-21T02:59:51;5.77;;;5.60;;
54328;SDS011;40710;51.120;13.136;2024-02-21T03:02:15;6.35;;;6.15;;
54328;SDS011;40710;51.120;13.136;2024-02-21T03:04:40;6.37;;;6.16;;
54328;SDS011;40710;51.120;13.136;2024-02-21T03:07:05;5.83;;;5.64;;
54328;SDS011;40710;51.120;13.136;2024-02-21T03:09:30;6.15;;;5.99;;
54328;SDS011;40710;51.120;13.136;2024-02-21T03:11:55;6.50;;;6.32;;
54328;SDS011;40710;51.120;13.136;2024-02-21T03:14:26;6.19;;;6.00;;
54328;SDS011;40710;51.120;13.136;2024-02-21T03:16:51;6.16;;;6.05;;
54328;SDS011;40710;51.120;13.136;2024-02-21T03:19:16;6.41;;;6.28;;
54328;SDS011;40710;51.120;13.136;2024-02-21T03:21:40;6.32;;;6.14;;
54328;SDS011;40710;51.120;13.136;2024-02-21T03:24:05;6.47;;;6.30;;
54328;SDS011;40710;51.120;13.136;2024-02-21T03:26:29;6.57;;;6.39;;
54328;SDS011;40710;51.120;13.136;2024-02-21T03:28:54;6.24;;;6.12;;
54328;SDS011;40710;51.120;13.136;2024-02-21T03:31:19;6.01;;;5.94;;
54328;SDS011;40710;51.120;13.136;2024-02-21T03:33:43;6.57;;;6.40;;
54328;SDS011;40710;51.120;13.136;2024-02-21T03:36:12;6.38;;;6.24;;
54328;SDS011;40710;51.120;13.136;2024-02-21T03:38:37;6.58;;;6.46;;
54328;SDS011;40710;51.120;13.136;2024-02-21T03:41:02;6.81;;;6.68;;
54328;SDS011;40710;51.120;13.136;2024-02-21T03:43:27;6.79;;;6.56;;
54328;SDS011;40710;51.120;13.136;2024-02-21T03:45:51;7.39;;;7.10;;
54328;SDS011;40710;51.120;13.136;2024-02-21T03:48:16;6.82;;;6.59;;
54328;SDS011;40710;51.120;13.136;2024-02-21T03:50:40;7.18;;;6.97;;
54328;SDS011;40710;51.120;13.136;2024-02-21T03:53:05;7.08;;;6.87;;
54328;SDS011;40710;51.120;13.136;2024-02-21T03:55:29;7.02;;;6.89;;
54328;SDS011;40710;51.120;13.136;2024-02-21T03:57:54;7.03;;;6.85;;
54328;SDS011;40710;51.120;13.136;2024-02-21T04:00:24;7.54;;;7.41;;
54328;SDS011;40710;51.120;13.136;2024-02-21T04:02:48;7.10;;;6.98;;
54328;SDS011;40710;51.120;13.136;2024-02-21T04:05:15;7.38;;;7.17;;
54328;SDS011;40710;51.120;13.136;2024-02-21T04:07:40;6.80;;;6.60;;
54328;SDS011;40710;51.120;13.136;2024-02-21T04:10:05;7.08;;;6.92;;
54328;SDS011;40710;51.120;13.136;2024-02-21T04:12:29;6.55;;;6.46;;
54328;SDS011;40710;51.120;13.136;2024-02-21T04:14:54;6.72;;;6.63;;
54328;SDS011;40710;51.120;13.136;2024-02-21T04:17:18;6.73;;;6.63;;
54328;SDS011;40710;51.120;13.136;2024-02-21T04:19:43;6.63;;;6.47;;
54328;SDS011;40710;51.120;13.136;2024-02-21T04:22:07;6.65;;;6.52;;
54328;SDS011;40710;51.120;13.136;2024-02-21T04:24:32;6.74;;;6.64;;
54328;SDS011;40710;51.120;13.136;2024-02-21T04:26:56;6.68;;;6.57;;
54328;SDS011;40710;51.120;13.136;2024-02-21T04:29:21;6.85;;;6.80;;
54328;SDS011;40710;51.120;13.136;2024-02-21T04:31:45;6.80;;;6.75;;
54328;SDS011;40710;51.120;13.136;2024-02-21T04:34:10;6.83;;;6.78;;
54328;SDS011;40710;51.120;13.136;2024-02-21T04:36:35;6.93;;;6.83;;
54328;SDS011;40710;51.120;13.136;2024-02-21T04:38:59;6.77;;;6.67;;
54328;SDS011;40710;51.120;13.136;2024-02-21T04:41:24;6.47;;;6.42;;
54328;SDS011;40710;51.120;13.136;2024-02-21T04:43:48;7.01;;;6.89;;
54328;SDS011;40710;51.120;13.136;2024-02-21T04:46:13;6.85;;;6.77;;
54328;SDS011;40710;51.120;13.136;2024-02-21T04:48:38;6.63;;;6.58;;
54328;SDS011;40710;51.120;13.136;2024-02-21T04:51:02;6.67;;;6.57;;
54328;SDS011;40710;51.120;13.136;2024-02-21T04:53:27;7.27;;;7.12;;
54328;SDS011;40710;51.120;13.136;2024-02-21T04:55:51;7.26;;;7.18;;
54328;SDS011;40710;51.120;13.136;2024-02-21T04:58:16;6.75;;;6.67;;
54328;SDS011;40710;51.120;13.136;2024-02-21T05:00:40;6.65;;;6.60;;
54328;SDS011;40710;51.120;13.136;2024-02-21T05:05:53;7.37;;;7.27;;
54328;SDS011;40710;51.120;13.136;2024-02-21T05:08:17;7.04;;;6.92;;
54328;SDS011;40710;51.120;13.136;2024-02-21T05:10:42;6.92;;;6.85;;
54328;SDS011;40710;51.120;13.136;2024-02-21T05:13:06;7.15;;;7.10;;
54328;SDS011;40710;51.120;13.136;2024-02-21T05:15:31;6.85;;;6.77;;
54328;SDS011;40710;51.120;13.136;2024-02-21T05:17:56;7.06;;;7.00;;
54328;SDS011;40710;51.120;13.136;2024-02-21T05:20:20;7.04;;;6.92;;
54328;SDS011;40710;51.120;13.136;2024-02-21T05:22:45;7.24;;;7.14;;
54328;SDS011;40710;51.120;13.136;2024-02-21T05:25:09;7.22;;;7.16;;
54328;SDS011;40710;51.120;13.136;2024-02-21T05:27:34;6.67;;;6.65;;
54328;SDS011;40710;51.120;13.136;2024-02-21T05:29:59;7.05;;;6.99;;
54328;SDS011;40710;51.120;13.136;2024-02-21T05:32:25;7.05;;;6.99;;
54328;SDS011;40710;51.120;13.136;2024-02-21T05:34:50;7.36;;;7.28;;
54328;SDS011;40710;51.120;13.136;2024-02-21T05:37:15;6.95;;;6.88;;
54328;SDS011;40710;51.120;13.136;2024-02-21T05:39:39;7.56;;;7.51;;
54328;SDS011;40710;51.120;13.136;2024-02-21T05:42:04;7.38;;;7.32;;
54328;SDS011;40710;51.120;13.136;2024-02-21T05:44:29;6.76;;;6.71;;
54328;SDS011;40710;51.120;13.136;2024-02-21T05:46:53;7.73;;;7.60;;
54328;SDS011;40710;51.120;13.136;2024-02-21T05:49:18;7.48;;;7.41;;
54328;SDS011;40710;51.120;13.136;2024-02-21T05:51:42;7.08;;;7.02;;
54328;SDS011;40710;51.120;13.136;2024-02-21T05:54:07;6.79;;;6.76;;
54328;SDS011;40710;51.120;13.136;2024-02-21T05:56:31;7.08;;;7.02;;
54328;SDS011;40710;51.120;13.136;2024-02-21T05:58:56;7.12;;;7.05;;
54328;SDS011;40710;51.120;13.136;2024-02-21T06:01:20;7.22;;;7.14;;
54328;SDS011;40710;51.120;13.136;2024-02-21T06:03:45;7.15;;;7.10;;
54328;SDS011;40710;51.120;13.136;2024-02-21T06:06:10;6.89;;;6.84;;
54328;SDS011;40710;51.120;13.136;2024-02-21T06:08:35;7.05;;;6.96;;
54328;SDS011;40710;51.120;13.136;2024-02-21T06:10:59;7.83;;;7.73;;
54328;SDS011;40710;51.120;13.136;2024-02-21T06:13:24;7.23;;;7.07;;
54328;SDS011;40710;51.120;13.136;2024-02-21T06:15:48;7.48;;;7.42;;
54328;SDS011;40710;51.120;13.136;2024-02-21T06:18:14;7.61;;;7.56;;
54328;SDS011;40710;51.120;13.136;2024-02-21T06:20:38;7.72;;;7.64;;
54328;SDS011;40710;51.120;13.136;2024-02-21T06:23:04;7.24;;;7.19;;
54328;SDS011;40710;51.120;13.136;2024-02-21T06:25:29;9.32;;;9.25;;
54328;SDS011;40710;51.120;13.136;2024-02-21T06:27:53;8.62;;;8.58;;
54328;SDS011;40710;51.120;13.136;2024-02-21T06:30:18;7.24;;;7.21;;
54328;SDS011;40710;51.120;13.136;2024-02-21T06:32:42;7.25;;;7.24;;
54328;SDS011;40710;51.120;13.136;2024-02-21T06:35:07;7.52;;;7.52;;
54328;SDS011;40710;51.120;13.136;2024-02-21T06:37:31;7.11;;;7.10;;
54328;SDS011;40710;51.120;13.136;2024-02-21T06:39:56;7.15;;;7.14;;
54328;SDS011;40710;51.120;13.136;2024-02-21T06:42:21;7.27;;;7.25;;
54328;SDS011;40710;51.120;13.136;2024-02-21T06:44:45;7.51;;;7.42;;
54328;SDS011;40710;51.120;13.136;2024-02-21T06:47:10;7.98;;;7.84;;
54328;SDS011;40710;51.120;13.136;2024-02-21T06:49:35;7.28;;;7.15;;
54328;SDS011;40710;51.120;13.136;2024-02-21T06:52:01;8.90;;;8.85;;
54328;SDS011;40710;51.120;13.136;2024-02-21T06:54:26;7.69;;;7.66;;
54328;SDS011;40710;51.120;13.136;2024-02-21T06:56:50;7.75;;;7.70;;
54328;SDS011;40710;51.120;13.136;2024-02-21T06:59:15;7.49;;;7.45;;
54328;SDS011;40710;51.120;13.136;2024-02-21T07:01:40;7.22;;;7.21;;
54328;SDS011;40710;51.120;13.136;2024-02-21T07:04:08;7.74;;;7.69;;
54328;SDS011;40710;51.120;13.136;2024-02-21T07:06:32;7.51;;;7.47;;
54328;SDS011;40710;51.120;13.136;2024-02-21T07:08:57;7.95;;;7.94;;
54328;SDS011;40710;51.120;13.136;2024-02-21T07:11:21;8.04;;;8.00;;
54328;SDS011;40710;51.120;13.136;2024-02-21T07:13:46;7.55;;;7.52;;
54328;SDS011;40710;51.120;13.136;2024-02-21T07:16:10;7.83;;;7.79;;
54328;SDS011;40710;51.120;13.136;2024-02-21T07:18:35;7.64;;;7.63;;
54328;SDS011;40710;51.120;13.136;2024-02-21T07:21:00;7.65;;;7.65;;
54328;SDS011;40710;51.120;13.136;2024-02-21T07:23:24;7.91;;;7.91;;
54328;SDS011;40710;51.120;13.136;2024-02-21T07:25:49;7.67;;;7.66;;
54328;SDS011;40710;51.120;13.136;2024-02-21T07:28:13;8.02;;;7.98;;
54328;SDS011;40710;51.120;13.136;2024-02-21T07:30:39;8.03;;;7.93;;
54328;SDS011;40710;51.120;13.136;2024-02-21T07:33:04;8.43;;;8.33;;
54328;SDS011;40710;51.120;13.136;2024-02-21T07:35:28;8.04;;;7.98;;
54328;SDS011;40710;51.120;13.136;2024-02-21T07:37:53;8.48;;;8.46;;
54328;SDS011;40710;51.120;13.136;2024-02-21T07:40:17;7.96;;;7.94;;
54328;SDS011;40710;51.120;13.136;2024-02-21T07:42:43;8.12;;;8.05;;
54328;SDS011;40710;51.120;13.136;2024-02-21T07:45:08;8.43;;;8.41;;
54328;SDS011;40710;51.120;13.136;2024-02-21T07:47:33;7.99;;;7.97;;
54328;SDS011;40710;51.120;13.136;2024-02-21T07:49:57;8.01;;;7.96;;
54328;SDS011;40710;51.120;13.136;2024-02-21T07:52:22;7.64;;;7.61;;
54328;SDS011;40710;51.120;13.136;2024-02-21T07:54:46;8.73;;;8.71;;
54328;SDS011;40710;51.120;13.136;2024-02-21T07:57:11;7.92;;;7.90;;
54328;SDS011;40710;51.120;13.136;2024-02-21T07:59:35;7.84;;;7.79;;
54328;SDS011;40710;51.120;13.136;2024-02-21T08:02:00;7.64;;;7.59;;
54328;SDS011;40710;51.120;13.136;2024-02-21T08:04:25;7.58;;;7.51;;
54328;SDS011;40710;51.120;13.136;2024-02-21T08:06:53;7.10;;;7.03;;
54328;SDS011;40710;51.120;13.136;2024-02-21T08:09:19;7.59;;;7.51;;
54328;SDS011;40710;51.120;13.136;2024-02-21T08:11:44;7.75;;;7.73;;
54328;SDS011;40710;51.120;13.136;2024-02-21T08:14:08;7.63;;;7.55;;
54328;SDS011;40710;51.120;13.136;2024-02-21T08:16:33;7.35;;;7.27;;
54328;SDS011;40710;51.120;13.136;2024-02-21T08:18:57;7.72;;;7.67;;
54328;SDS011;40710;51.120;13.136;2024-02-21T08:21:23;8.02;;;7.96;;
54328;SDS011;40710;51.120;13.136;2024-02-21T08:23:48;8.24;;;8.21;;
54328;SDS011;40710;51.120;13.136;2024-02-21T08:26:15;7.61;;;7.58;;
54328;SDS011;40710;51.120;13.136;2024-02-21T08:28:40;7.38;;;7.34;;
54328;SDS011;40710;51.120;13.136;2024-02-21T08:31:04;7.48;;;7.45;;
54328;SDS011;40710;51.120;13.136;2024-02-21T08:33:29;6.90;;;6.88;;
54328;SDS011;40710;51.120;13.136;2024-02-21T08:35:54;6.86;;;6.81;;
54328;SDS011;40710;51.120;13.136;2024-02-21T08:38:18;7.08;;;7.06;;
54328;SDS011;40710;51.120;13.136;2024-02-21T08:40:43;7.40;;;7.39;;
54328;SDS011;40710;51.120;13.136;2024-02-21T08:43:07;8.27;;;8.22;;
54328;SDS011;40710;51.120;13.136;2024-02-21T08:45:32;7.21;;;7.18;;
54328;SDS011;40710;51.120;13.136;2024-02-21T08:47:56;6.99;;;6.93;;
54328;SDS011;40710;51.120;13.136;2024-02-21T08:50:21;6.93;;;6.85;;
54328;SDS011;40710;51.120;13.136;2024-02-21T08:52:45;7.26;;;7.18;;
54328;SDS011;40710;51.120;13.136;2024-02-21T08:55:10;7.00;;;6.94;;
54328;SDS011;40710;51.120;13.136;2024-02-21T08:57:35;6.99;;;6.88;;
54328;SDS011;40710;51.120;13.136;2024-02-21T09:00:00;6.96;;;6.88;;
54328;SDS011;40710;51.120;13.136;2024-02-21T09:02:25;7.07;;;7.04;;
54328;SDS011;40710;51.120;13.136;2024-02-21T09:04:49;6.85;;;6.77;;
54328;SDS011;40710;51.120;13.136;2024-02-21T09:07:14;6.39;;;6.38;;
54328;SDS011;40710;51.120;13.136;2024-02-21T09:09:39;6.51;;;6.49;;
54328;SDS011;40710;51.120;13.136;2024-02-21T09:12:05;6.47;;;6.41;;
54328;SDS011;40710;51.120;13.136;2024-02-21T09:14:30;6.81;;;6.78;;
54328;SDS011;40710;51.120;13.136;2024-02-21T09:16:55;6.75;;;6.73;;
54328;SDS011;40710;51.120;13.136;2024-02-21T09:19:20;7.13;;;7.08;;
54328;SDS011;40710;51.120;13.136;2024-02-21T09:21:44;6.91;;;6.87;;
54328;SDS011;40710;51.120;13.136;2024-02-21T09:24:09;6.95;;;6.91;;
54328;SDS011;40710;51.120;13.136;2024-02-21T09:26:33;6.95;;;6.92;;
54328;SDS011;40710;51.120;13.136;2024-02-21T09:28:58;6.60;;;6.56;;
54328;SDS011;40710;51.120;13.136;2024-02-21T09:31:22;6.64;;;6.58;;
54328;SDS011;40710;51.120;13.136;2024-02-21T09:33:47;6.98;;;6.95;;
54328;SDS011;40710;51.120;13.136;2024-02-21T09:36:12;6.66;;;6.63;;
54328;SDS011;40710;51.120;13.136;2024-02-21T09:38:36;6.57;;;6.55;;
54328;SDS011;40710;51.120;13.136;2024-02-21T09:41:16;6.84;;;6.78;;
54328;SDS011;40710;51.120;13.136;2024-02-21T09:43:42;6.81;;;6.74;;
54328;SDS011;40710;51.120;13.136;2024-02-21T09:46:11;6.64;;;6.58;;
54328;SDS011;40710;51.120;13.136;2024-02-21T09:48:58;6.39;;;6.29;;
54328;SDS011;40710;51.120;13.136;2024-02-21T09:51:38;6.25;;;6.22;;
54328;SDS011;40710;51.120;13.136;2024-02-21T09:54:07;5.95;;;5.95;;
54328;SDS011;40710;51.120;13.136;2024-02-21T09:56:32;5.98;;;5.96;;
54328;SDS011;40710;51.120;13.136;2024-02-21T09:58:56;6.06;;;6.03;;
54328;SDS011;40710;51.120;13.136;2024-02-21T10:01:21;6.31;;;6.30;;
54328;SDS011;40710;51.120;13.136;2024-02-21T10:03:46;6.00;;;5.99;;
54328;SDS011;40710;51.120;13.136;2024-02-21T10:06:10;6.08;;;6.06;;
54328;SDS011;40710;51.120;13.136;2024-02-21T10:08:35;5.87;;;5.84;;
54328;SDS011;40710;51.120;13.136;2024-02-21T10:10:59;6.00;;;5.96;;
54328;SDS011;40710;51.120;13.136;2024-02-21T10:13:26;5.75;;;5.73;;
54328;SDS011;40710;51.120;13.136;2024-02-21T10:16:04;5.68;;;5.67;;
54328;SDS011;40710;51.120;13.136;2024-02-21T10:18:33;6.25;;;6.21;;
54328;SDS011;40710;51.120;13.136;2024-02-21T10:23:29;5.81;;;5.77;;
54328;SDS011;40710;51.120;13.136;2024-02-21T10:26:05;5.77;;;5.74;;
54328;SDS011;40710;51.120;13.136;2024-02-21T10:28:30;5.83;;;5.80;;
54328;SDS011;40710;51.120;13.136;2024-02-21T10:30:55;6.04;;;6.02;;
54328;SDS011;40710;51.120;13.136;2024-02-21T10:33:20;5.90;;;5.90;;
54328;SDS011;40710;51.120;13.136;2024-02-21T10:35:45;6.13;;;6.13;;
54328;SDS011;40710;51.120;13.136;2024-02-21T10:38:09;6.10;;;6.09;;
54328;SDS011;40710;51.120;13.136;2024-02-21T10:40:34;6.09;;;6.05;;
54328;SDS011;40710;51.120;13.136;2024-02-21T10:42:59;6.05;;;6.01;;
54328;SDS011;40710;51.120;13.136;2024-02-21T10:45:27;6.25;;;6.18;;
54328;SDS011;40710;51.120;13.136;2024-02-21T10:48:11;6.19;;;6.18;;
54328;SDS011;40710;51.120;13.136;2024-02-21T10:50:43;6.00;;;5.98;;
54328;SDS011;40710;51.120;13.136;2024-02-21T10:53:43;5.97;;;5.96;;
54328;SDS011;40710;51.120;13.136;2024-02-21T10:56:12;6.12;;;6.09;;
54328;SDS011;40710;51.120;13.136;2024-02-21T10:58:47;5.81;;;5.79;;
54328;SDS011;40710;51.120;13.136;2024-02-21T11:01:13;10.87;;;10.81;;
54328;SDS011;40710;51.120;13.136;2024-02-21T11:03:39;6.86;;;6.86;;
54328;SDS011;40710;51.120;13.136;2024-02-21T11:06:04;5.70;;;5.69;;
54328;SDS011;40710;51.120;13.136;2024-02-21T11:08:29;5.56;;;5.55;;
54328;SDS011;40710;51.120;13.136;2024-02-21T11:10:56;5.47;;;5.45;;
54328;SDS011;40710;51.120;13.136;2024-02-21T11:13:37;5.40;;;5.38;;
54328;SDS011;40710;51.120;13.136;2024-02-21T11:16:11;5.34;;;5.32;;
54328;SDS011;40710;51.120;13.136;2024-02-21T11:18:45;5.72;;;5.69;;
54328;SDS011;40710;51.120;13.136;2024-02-21T11:21:10;5.26;;;5.25;;
54328;SDS011;40710;51.120;13.136;2024-02-21T11:23:34;4.99;;;4.99;;
54328;SDS011;40710;51.120;13.136;2024-02-21T11:26:05;5.37;;;5.36;;
54328;SDS011;40710;51.120;13.136;2024-02-21T11:28:30;5.16;;;5.15;;
54328;SDS011;40710;51.120;13.136;2024-02-21T11:31:04;5.16;;;5.15;;
54328;SDS011;40710;51.120;13.136;2024-02-21T11:33:31;5.24;;;5.22;;
54328;SDS011;40710;51.120;13.136;2024-02-21T11:35:57;5.38;;;5.37;;
54328;SDS011;40710;51.120;13.136;2024-02-21T11:38:22;5.39;;;5.38;;
54328;SDS011;40710;51.120;13.136;2024-02-21T11:40:47;5.06;;;5.06;;
54328;SDS011;40710;51.120;13.136;2024-02-21T11:43:11;5.20;;;5.20;;
54328;SDS011;40710;51.120;13.136;2024-02-21T11:45:36;5.40;;;5.35;;
54328;SDS011;40710;51.120;13.136;2024-02-21T11:48:02;5.43;;;5.40;;
54328;SDS011;40710;51.120;13.136;2024-02-21T11:50:29;5.16;;;5.14;;
54328;SDS011;40710;51.120;13.136;2024-02-21T11:52:55;5.28;;;5.27;;
54328;SDS011;40710;51.120;13.136;2024-02-21T11:55:19;5.79;;;5.76;;
54328;SDS011;40710;51.120;13.136;2024-02-21T11:57:44;5.39;;;5.35;;
54328;SDS011;40710;51.120;13.136;2024-02-21T12:00:11;5.42;;;5.39;;
54328;SDS011;40710;51.120;13.136;2024-02-21T12:02:37;4.95;;;4.93;;
54328;SDS011;40710;51.120;13.136;2024-02-21T12:05:01;4.87;;;4.85;;
54328;SDS011;40710;51.120;13.136;2024-02-21T12:07:26;4.33;;;4.33;;
54328;SDS011;40710;51.120;13.136;2024-02-21T12:09:52;5.20;;;5.18;;
54328;SDS011;40710;51.120;13.136;2024-02-21T12:12:19;5.36;;;5.34;;
54328;SDS011;40710;51.120;13.136;2024-02-21T12:14:44;4.66;;;4.65;;
54328;SDS011;40710;51.120;13.136;2024-02-21T12:17:09;4.23;;;4.22;;
54328;SDS011;40710;51.120;13.136;2024-02-21T12:19:34;4.08;;;4.08;;
54328;SDS011;40710;51.120;13.136;2024-02-21T12:21:59;4.24;;;4.24;;
54328;SDS011;40710;51.120;13.136;2024-02-21T12:24:24;4.41;;;4.41;;
54328;SDS011;40710;51.120;13.136;2024-02-21T12:26:54;4.29;;;4.29;;
54328;SDS011;40710;51.120;13.136;2024-02-21T12:29:20;4.51;;;4.51;;
54328;SDS011;40710;51.120;13.136;2024-02-21T12:31:47;3.95;;;3.95;;
54328;SDS011;40710;51.120;13.136;2024-02-21T12:34:11;4.08;;;4.06;;
54328;SDS011;40710;51.120;13.136;2024-02-21T12:36:40;3.97;;;3.97;;
54328;SDS011;40710;51.120;13.136;2024-02-21T12:39:11;4.17;;;4.16;;
54328;SDS011;40710;51.120;13.136;2024-02-21T12:41:36;4.08;;;4.08;;
54328;SDS011;40710;51.120;13.136;2024-02-21T12:44:02;3.53;;;3.53;;
54328;SDS011;40710;51.120;13.136;2024-02-21T12:46:27;3.67;;;3.67;;
54328;SDS011;40710;51.120;13.136;2024-02-21T12:48:52;3.43;;;3.42;;
54328;SDS011;40710;51.120;13.136;2024-02-21T12:51:16;3.63;;;3.63;;
54328;SDS011;40710;51.120;13.136;2024-02-21T12:53:45;3.90;;;3.90;;
54328;SDS011;40710;51.120;13.136;2024-02-21T12:56:09;4.07;;;4.06;;
54328;SDS011;40710;51.120;13.136;2024-02-21T12:58:34;3.73;;;3.72;;
54328;SDS011;40710;51.120;13.136;2024-02-21T13:00:58;3.74;;;3.74;;
54328;SDS011;40710;51.120;13.136;2024-02-21T13:03:23;3.63;;;3.63;;
54328;SDS011;40710;51.120;13.136;2024-02-21T13:05:47;3.79;;;3.79;;
54328;SDS011;40710;51.120;13.136;2024-02-21T13:08:12;3.75;;;3.75;;
54328;SDS011;40710;51.120;13.136;2024-02-21T13:10:37;3.77;;;3.77;;
54328;SDS011;40710;51.120;13.136;2024-02-21T13:13:02;3.70;;;3.70;;
54328;SDS011;40710;51.120;13.136;2024-02-21T13:15:26;3.82;;;3.82;;
54328;SDS011;40710;51.120;13.136;2024-02-21T13:17:52;4.12;;;4.09;;
54328;SDS011;40710;51.120;13.136;2024-02-21T13:20:16;3.47;;;3.45;;
54328;SDS011;40710;51.120;13.136;2024-02-21T13:22:41;3.51;;;3.51;;
54328;SDS011;40710;51.120;13.136;2024-02-21T13:25:06;3.79;;;3.79;;
54328;SDS011;40710;51.120;13.136;2024-02-21T13:27:31;3.97;;;3.97;;
54328;SDS011;40710;51.120;13.136;2024-02-21T13:29:56;4.01;;;4.01;;
54328;SDS011;40710;51.120;13.136;2024-02-21T13:32:21;3.63;;;3.63;;
54328;SDS011;40710;51.120;13.136;2024-02-21T13:34:45;3.75;;;3.74;;
54328;SDS011;40710;51.120;13.136;2024-02-21T13:37:10;3.91;;;3.91;;
54328;SDS011;40710;51.120;13.136;2024-02-21T13:39:35;3.65;;;3.65;;
54328;SDS011;40710;51.120;13.136;2024-02-21T13:42:00;3.48;;;3.48;;
54328;SDS011;40710;51.120;13.136;2024-02-21T13:44:24;3.79;;;3.79;;
54328;SDS011;40710;51.120;13.136;2024-02-21T13:46:49;3.83;;;3.82;;
54328;SDS011;40710;51.120;13.136;2024-02-21T13:49:14;3.88;;;3.85;;
54328;SDS011;40710;51.120;13.136;2024-02-21T13:51:38;3.74;;;3.73;;
54328;SDS011;40710;51.120;13.136;2024-02-21T13:54:05;3.41;;;3.39;;
54328;SDS011;40710;51.120;13.136;2024-02-21T13:56:30;3.49;;;3.46;;
54328;SDS011;40710;51.120;13.136;2024-02-21T13:58:55;3.34;;;3.30;;
54328;SDS011;40710;51.120;13.136;2024-02-21T14:01:19;3.38;;;3.34;;
54328;SDS011;40710;51.120;13.136;2024-02-21T14:03:44;3.51;;;3.50;;
54328;SDS011;40710;51.120;13.136;2024-02-21T14:06:09;3.64;;;3.61;;
54328;SDS011;40710;51.120;13.136;2024-02-21T14:08:33;3.71;;;3.69;;
54328;SDS011;40710;51.120;13.136;2024-02-21T14:10:58;3.72;;;3.72;;
54328;SDS011;40710;51.120;13.136;2024-02-21T14:13:24;3.56;;;3.56;;
54328;SDS011;40710;51.120;13.136;2024-02-21T14:15:49;3.82;;;3.78;;
54328;SDS011;40710;51.120;13.136;2024-02-21T14:18:14;3.98;;;3.93;;
54328;SDS011;40710;51.120;13.136;2024-02-21T14:20:40;3.82;;;3.80;;
54328;SDS011;40710;51.120;13.136;2024-02-21T14:23:04;3.69;;;3.68;;
54328;SDS011;40710;51.120;13.136;2024-02-21T14:25:29;3.24;;;3.23;;
54328;SDS011;40710;51.120;13.136;2024-02-21T14:27:53;3.45;;;3.43;;